Time;durP1;ratioP1;P1;durP2;ratioP2;P2;SDS_P1;SDS_P2;PMS_P1;PMS_P2;Temp;Humidity;BMP_temperature;BMP_pressure;BME280_temperature;BME280_humidity;BME280_pressure;Samples;Min_cycle;Max_cycle;Signal;HPM_P1;HPM_P2
2022/06/20 00:02:00;;;;;;;3.50;2.63;;;24.90;99.90;;;;;;4954534;29;20043;-77
2022/06/20 00:04:26;;;;;;;5.03;2.97;;;24.90;99.90;;;;;;4952624;29;20396;-77
2022/06/20 00:06:52;;;;;;;3.47;2.58;;;24.80;99.90;;;;;;4949986;28;20038;-78
2022/06/20 00:09:17;;;;;;;6.43;2.90;;;24.70;99.90;;;;;;4952532;29;20035;-77
2022/06/20 00:11:49;;;;;;;2.90;2.60;;;24.70;99.90;;;;;;4951367;29;20114;-78
2022/06/20 00:14:17;;;;;;;4.03;2.72;;;24.70;99.90;;;;;;4953738;29;20035;-77
2022/06/20 00:16:43;;;;;;;2.55;2.35;;;24.70;99.90;;;;;;4953116;29;20216;-77
2022/06/20 00:19:09;;;;;;;4.72;2.60;;;24.70;99.90;;;;;;4952675;29;20034;-77
2022/06/20 00:21:35;;;;;;;3.72;2.60;;;24.60;99.90;;;;;;4951659;29;20050;-77
2022/06/20 00:24:01;;;;;;;5.80;2.70;;;24.60;99.90;;;;;;4952335;29;20075;-78
2022/06/20 00:26:27;;;;;;;3.20;2.53;;;24.60;99.90;;;;;;4952398;28;20043;-78
2022/06/20 00:28:53;;;;;;;3.20;2.60;;;24.50;99.90;;;;;;4952738;29;20031;-77
2022/06/20 00:31:19;;;;;;;4.60;2.78;;;24.50;99.90;;;;;;4951961;29;20386;-77
2022/06/20 00:33:46;;;;;;;3.25;2.60;;;24.50;99.90;;;;;;4951838;29;20090;-77
2022/06/20 00:36:13;;;;;;;2.80;2.60;;;24.50;99.90;;;;;;4951749;28;20039;-77
2022/06/20 00:38:40;;;;;;;4.47;2.67;;;24.40;99.90;;;;;;4936941;29;20020;-78
2022/06/20 00:41:11;;;;;;;3.80;2.78;;;24.30;99.90;;;;;;4948143;28;20399;-78
2022/06/20 00:43:47;;;;;;;3.67;2.78;;;24.40;99.90;;;;;;4952789;29;20110;-77
2022/06/20 00:46:30;;;;;;;4.22;3.20;;;24.30;99.90;;;;;;4951628;29;20090;-78
2022/06/20 00:49:12;;;;;;;3.35;2.65;;;24.30;99.90;;;;;;4951803;28;20114;-77
2022/06/20 00:52:16;;;;;;;4.13;2.75;;;24.30;99.90;;;;;;4951895;29;20107;-77
2022/06/20 00:55:12;;;;;;;4.57;2.60;;;24.30;99.90;;;;;;4937219;29;20043;-77
2022/06/20 00:57:42;;;;;;;3.78;2.60;;;24.20;99.90;;;;;;4950617;29;20035;-77
2022/06/20 01:00:13;;;;;;;2.97;2.58;;;24.20;99.90;;;;;;4951631;29;20032;-78
2022/06/20 01:02:42;;;;;;;4.00;3.00;;;24.20;99.90;;;;;;4936940;29;20523;-77
2022/06/20 01:05:15;;;;;;;4.38;2.50;;;24.20;99.90;;;;;;4950024;29;20150;-77
2022/06/20 01:07:48;;;;;;;3.90;2.55;;;24.20;99.90;;;;;;4950618;29;20039;-77
2022/06/20 01:10:15;;;;;;;5.05;2.75;;;24.10;99.90;;;;;;4952001;29;20058;-77
2022/06/20 01:12:53;;;;;;;3.08;2.53;;;24.10;99.90;;;;;;4951525;28;20023;-77
2022/06/20 01:15:23;;;;;;;2.88;2.67;;;24.10;99.90;;;;;;4955587;29;20034;-78
2022/06/20 01:17:50;;;;;;;3.08;2.80;;;24.00;99.90;;;;;;4956017;29;20560;-77
2022/06/20 01:20:22;;;;;;;5.63;2.90;;;24.00;99.90;;;;;;4956474;29;20023;-78
2022/06/20 01:22:57;;;;;;;3.13;2.80;;;24.00;99.90;;;;;;4957144;29;20039;-77
2022/06/20 01:25:34;;;;;;;3.17;2.60;;;24.00;99.90;;;;;;4953420;28;20031;-77
2022/06/20 01:28:00;;;;;;;3.38;2.70;;;24.00;99.90;;;;;;4955209;29;20039;-77
2022/06/20 01:30:32;;;;;;;3.72;2.95;;;24.00;99.90;;;;;;4955289;29;20043;-77
2022/06/20 01:32:58;;;;;;;4.75;2.80;;;23.90;99.90;;;;;;4955761;29;20458;-78
2022/06/20 01:38:13;;;;;;;4.15;2.90;;;23.90;99.90;;;;;;4953622;29;20046;-77
2022/06/20 01:42:18;;;;;;;4.65;2.78;;;23.90;99.90;;;;;;4952584;29;20034;-78
2022/06/20 01:43:28;;;;;;;3.83;2.83;;;23.90;99.90;;;;;;4955032;29;20063;-78
2022/06/20 01:45:58;;;;;;;5.05;2.85;;;23.80;99.90;;;;;;4954928;29;20034;-77
2022/06/20 01:48:30;;;;;;;4.82;3.00;;;23.80;99.90;;;;;;4954848;29;20047;-78
2022/06/20 01:50:57;;;;;;;4.95;3.13;;;23.80;99.90;;;;;;4955053;29;20019;-78
2022/06/20 01:53:28;;;;;;;3.75;3.10;;;23.80;99.90;;;;;;4955368;29;20476;-78
2022/06/20 01:55:55;;;;;;;4.40;3.40;;;23.80;99.90;;;;;;4953977;28;20027;-77
2022/06/20 01:58:29;;;;;;;4.50;3.00;;;23.90;99.90;;;;;;4954492;29;20035;-77
2022/06/20 02:00:56;;;;;;;2.88;2.67;;;23.90;99.90;;;;;;4954730;29;20126;-78
2022/06/20 02:03:22;;;;;;;4.43;3.55;;;23.90;99.90;;;;;;4954365;29;20066;-77
2022/06/20 02:05:49;;;;;;;4.70;3.15;;;23.90;99.90;;;;;;4954826;29;20444;-78
2022/06/20 02:08:20;;;;;;;4.22;3.00;;;23.80;99.90;;;;;;4938811;29;20089;-78
2022/06/20 02:10:56;;;;;;;3.45;2.88;;;23.80;99.90;;;;;;4954677;29;20599;-77
2022/06/20 02:13:25;;;;;;;3.15;2.85;;;23.70;99.90;;;;;;4952217;28;20093;-77
2022/06/20 02:15:56;;;;;;;5.20;3.28;;;23.80;99.90;;;;;;4954852;29;20027;-78
2022/06/20 02:18:22;;;;;;;4.93;3.00;;;23.70;99.90;;;;;;4954568;29;20447;-78
2022/06/20 02:20:50;;;;;;;3.90;2.75;;;23.70;99.90;;;;;;4954513;29;20035;-77
2022/06/20 02:23:25;;;;;;;4.35;3.03;;;23.70;99.90;;;;;;4955721;28;20027;-78
2022/06/20 02:25:53;;;;;;;3.60;2.92;;;23.80;99.90;;;;;;4953031;28;20364;-78
2022/06/20 02:28:27;;;;;;;3.63;2.80;;;23.70;99.90;;;;;;4954289;29;20481;-77
2022/06/20 02:30:52;;;;;;;4.10;3.30;;;23.80;99.90;;;;;;4954155;29;20505;-78
2022/06/20 02:33:25;;;;;;;3.92;3.00;;;23.70;99.90;;;;;;4937104;29;20074;-78
2022/06/20 02:35:56;;;;;;;4.22;3.20;;;23.60;99.90;;;;;;4954302;29;20035;-78
2022/06/20 02:38:22;;;;;;;3.42;3.05;;;23.60;99.90;;;;;;4954716;29;20110;-78
2022/06/20 02:40:52;;;;;;;3.83;3.00;;;23.60;99.90;;;;;;4954123;28;20122;-78
2022/06/20 02:43:29;;;;;;;6.70;3.30;;;23.50;99.90;;;;;;4953913;29;20484;-78
2022/06/20 02:45:56;;;;;;;4.03;2.90;;;23.50;99.90;;;;;;4953177;29;20042;-78
2022/06/20 02:48:25;;;;;;;3.75;3.20;;;23.50;99.90;;;;;;4954248;29;20114;-78
2022/06/20 02:50:55;;;;;;;8.68;3.00;;;23.50;99.90;;;;;;4953987;29;20032;-78
2022/06/20 02:53:27;;;;;;;4.07;3.15;;;23.50;99.90;;;;;;4954452;29;20031;-78
2022/06/20 02:55:55;;;;;;;5.60;3.65;;;23.60;99.90;;;;;;4952308;29;20023;-78
2022/06/20 02:58:28;;;;;;;5.03;3.00;;;23.50;99.90;;;;;;4954082;29;20081;-78
2022/06/20 03:01:34;;;;;;;5.22;2.92;;;23.50;99.90;;;;;;4953239;29;20126;-78
2022/06/20 03:04:01;;;;;;;4.93;3.03;;;23.50;99.90;;;;;;4852814;29;20041;-78
2022/06/20 03:06:33;;;;;;;5.57;3.33;;;23.50;99.90;;;;;;4856791;29;20534;-77
2022/06/20 03:09:00;;;;;;;4.05;2.95;;;23.50;99.90;;;;;;4846698;29;20051;-78
2022/06/20 03:11:28;;;;;;;5.35;3.22;;;23.50;99.90;;;;;;4828726;29;20439;-78
2022/06/20 03:13:57;;;;;;;3.47;3.17;;;23.50;99.90;;;;;;4846255;29;20042;-78
2022/06/20 03:16:23;;;;;;;4.18;2.85;;;23.50;99.90;;;;;;4847636;29;20030;-78
2022/06/20 03:18:50;;;;;;;5.13;2.90;;;23.50;99.90;;;;;;4852860;29;20035;-77
2022/06/20 03:21:25;;;;;;;5.63;3.20;;;23.50;99.90;;;;;;4858079;29;20049;-77
2022/06/20 03:23:51;;;;;;;4.95;3.10;;;23.50;99.90;;;;;;4844288;29;20022;-78
2022/06/20 03:26:23;;;;;;;5.45;3.38;;;23.50;99.90;;;;;;4843287;29;20048;-78
2022/06/20 03:28:50;;;;;;;3.60;3.30;;;23.50;99.90;;;;;;4844358;29;20064;-77
2022/06/20 03:31:16;;;;;;;3.13;2.70;;;23.40;99.90;;;;;;4850126;29;20086;-78
2022/06/20 03:33:42;;;;;;;4.43;2.90;;;23.40;99.90;;;;;;4854597;29;20034;-77
2022/06/20 03:36:21;;;;;;;4.80;3.10;;;23.30;99.90;;;;;;4846630;29;20037;-78
2022/06/20 03:38:48;;;;;;;3.97;3.10;;;23.10;99.90;;;;;;4878280;29;20063;-77
2022/06/20 03:41:17;;;;;;;7.85;3.30;;;23.30;99.90;;;;;;4952695;29;20039;-78
2022/06/20 03:44:01;;;;;;;5.70;3.00;;;23.30;99.90;;;;;;4953758;29;20073;-78
2022/06/20 03:46:30;;;;;;;5.85;3.20;;;23.30;99.90;;;;;;4925083;29;20027;-78
2022/06/20 03:49:08;;;;;;;3.78;3.38;;;23.30;99.90;;;;;;4946424;29;20034;-78
2022/06/20 03:51:47;;;;;;;4.88;3.35;;;23.30;99.90;;;;;;4953138;29;20036;-78
2022/06/20 03:54:48;;;;;;;5.00;2.92;;;23.10;99.90;;;;;;4951805;29;20031;-77
2022/06/20 03:57:32;;;;;;;4.32;3.10;;;23.10;99.90;;;;;;4935618;29;20567;-78
2022/06/20 04:00:56;;;;;;;4.80;3.00;;;23.00;99.90;;;;;;4952639;29;20519;-77
2022/06/20 04:03:56;;;;;;;3.90;2.65;;;22.90;99.90;;;;;;4824799;29;20038;-78
2022/06/20 04:06:29;;;;;;;3.80;3.08;;;22.80;99.90;;;;;;4768392;30;20093;-77
2022/06/20 04:12:26;;;;;;;4.22;3.13;;;23.00;99.90;;;;;;4768064;30;20181;-77
2022/06/20 04:15:04;;;;;;;4.18;2.90;;;23.00;99.90;;;;;;4768078;30;20039;-77
2022/06/20 04:20:43;;;;;;;3.65;2.85;;;23.00;99.90;;;;;;4765066;30;20093;-78
2022/06/20 04:23:19;;;;;;;3.92;3.17;;;23.00;99.90;;;;;;4767502;30;20135;-78
2022/06/20 04:25:55;;;;;;;6.82;3.25;;;23.00;99.90;;;;;;4765579;30;20040;-77
2022/06/20 04:28:24;;;;;;;6.20;3.22;;;23.10;99.90;;;;;;4767659;30;20038;-78
2022/06/20 04:30:59;;;;;;;3.28;2.97;;;23.00;99.90;;;;;;4767576;30;20539;-78
2022/06/20 04:33:36;;;;;;;3.45;3.15;;;22.90;99.90;;;;;;4767744;30;20039;-78
2022/06/20 04:36:11;;;;;;;4.28;3.22;;;23.00;99.90;;;;;;4767724;30;20501;-78
2022/06/20 04:38:44;;;;;;;3.75;2.90;;;23.00;99.90;;;;;;4780420;29;20111;-78
2022/06/20 04:41:23;;;;;;;4.20;3.25;;;23.10;99.90;;;;;;4875427;29;20048;-76
2022/06/20 04:43:55;;;;;;;5.32;3.22;;;23.10;99.90;;;;;;4940069;28;20038;-78
2022/06/20 04:46:26;;;;;;;6.43;3.33;;;23.10;99.90;;;;;;4951651;28;20041;-78
2022/06/20 04:48:52;;;;;;;4.60;3.03;;;23.10;99.90;;;;;;4951792;29;20027;-78
2022/06/20 04:51:24;;;;;;;5.97;3.63;;;23.10;99.90;;;;;;4951867;29;20031;-78
2022/06/20 04:53:50;;;;;;;4.90;3.67;;;23.30;99.90;;;;;;4931552;29;20468;-77
2022/06/20 04:56:26;;;;;;;4.22;3.83;;;23.30;99.90;;;;;;4952580;29;20050;-78
2022/06/20 04:59:16;;;;;;;5.57;3.55;;;23.20;99.90;;;;;;4952053;29;20034;-78
2022/06/20 05:01:42;;;;;;;6.55;3.53;;;23.20;99.90;;;;;;4952511;28;20031;-78
2022/06/20 05:04:17;;;;;;;6.20;3.65;;;23.20;99.90;;;;;;4952172;29;20042;-77
2022/06/20 05:06:42;;;;;;;3.03;2.75;;;23.20;99.90;;;;;;4951567;29;20086;-77
2022/06/20 05:10:05;;;;;;;10.85;3.45;;;23.10;99.90;;;;;;4950110;28;20027;-77
2022/06/20 05:12:43;;;;;;;5.80;3.28;;;23.20;99.90;;;;;;4845981;29;20487;-78
2022/06/20 05:15:11;;;;;;;4.38;3.05;;;23.20;99.90;;;;;;4846423;29;20541;-78
2022/06/20 05:17:40;;;;;;;3.78;2.90;;;23.30;99.90;;;;;;4849646;29;20045;-77
2022/06/20 05:20:18;;;;;;;5.78;3.15;;;23.40;99.90;;;;;;4843108;29;20099;-78
2022/06/20 05:22:58;;;;;;;4.95;3.50;;;23.40;99.90;;;;;;4845643;29;20042;-77
2022/06/20 05:25:25;;;;;;;5.38;3.28;;;23.40;99.90;;;;;;4849398;29;20038;-78
2022/06/20 05:28:01;;;;;;;5.07;3.00;;;23.40;99.90;;;;;;4852492;29;20060;-78
2022/06/20 05:30:32;;;;;;;4.20;3.15;;;23.50;99.90;;;;;;4854467;29;20053;-78
2022/06/20 05:33:21;;;;;;;6.60;3.40;;;23.50;99.90;;;;;;4844354;29;20467;-78
2022/06/20 05:35:54;;;;;;;7.22;3.10;;;23.60;99.90;;;;;;4855509;29;20033;-77
2022/06/20 05:38:43;;;;;;;5.50;3.33;;;23.70;99.90;;;;;;4853562;29;20064;-78
2022/06/20 05:41:18;;;;;;;4.40;3.25;;;23.70;99.90;;;;;;4853075;29;20060;-78
2022/06/20 05:43:44;;;;;;;4.30;3.28;;;23.60;99.90;;;;;;4919191;29;20411;-77
2022/06/20 05:46:17;;;;;;;5.90;2.85;;;23.60;99.90;;;;;;4951257;29;20039;-77
2022/06/20 05:48:53;;;;;;;5.05;3.00;;;23.60;99.90;;;;;;4951556;29;20046;-77
2022/06/20 05:51:22;;;;;;;3.42;3.00;;;23.80;99.90;;;;;;4951170;29;20015;-78
2022/06/20 05:54:03;;;;;;;4.13;3.40;;;23.90;99.90;;;;;;4949432;29;20058;-78
2022/06/20 05:57:05;;;;;;;5.57;3.60;;;23.90;99.90;;;;;;4950970;29;20047;-78
2022/06/20 05:59:31;;;;;;;5.85;2.70;;;24.00;99.90;;;;;;4952970;28;20413;-78
2022/06/20 06:02:12;;;;;;;6.88;3.25;;;24.00;99.90;;;;;;4956740;29;20046;-78
2022/06/20 06:05:04;;;;;;;5.72;3.10;;;24.10;99.90;;;;;;4953761;29;20019;-77
2022/06/20 06:07:38;;;;;;;8.50;3.78;;;24.10;99.90;;;;;;4940594;28;20416;-78
2022/06/20 06:10:21;;;;;;;6.15;3.15;;;24.20;99.90;;;;;;4953940;29;20031;-80
2022/06/20 06:13:33;;;;;;;4.03;3.25;;;24.30;99.90;;;;;;4954316;28;20507;-81
2022/06/20 06:19:13;;;;;;;4.13;3.05;;;24.40;99.90;;;;;;4853817;29;20072;-79
2022/06/20 06:21:40;;;;;;;5.38;3.25;;;24.50;99.90;;;;;;4852291;29;20059;-79
2022/06/20 06:24:07;;;;;;;6.18;3.50;;;24.50;99.90;;;;;;4858105;29;20058;-79
2022/06/20 06:26:35;;;;;;;5.85;3.33;;;24.50;99.90;;;;;;4844371;29;20214;-81
2022/06/20 06:29:02;;;;;;;5.40;3.05;;;24.50;99.90;;;;;;4846230;29;20022;-73
2022/06/20 06:31:32;;;;;;;5.72;3.92;;;24.70;99.90;;;;;;4848686;29;20057;-74
2022/06/20 06:34:40;;;;;;;45.65;7.97;;;25.10;99.90;;;;;;4849071;29;20042;-73
2022/06/20 06:37:16;;;;;;;7.50;3.55;;;25.10;99.90;;;;;;4818600;29;20398;-77
2022/06/20 06:39:52;;;;;;;3.78;3.28;;;25.10;99.90;;;;;;4803956;29;20476;-78
2022/06/20 06:42:18;;;;;;;4.32;3.40;;;24.90;99.90;;;;;;4812645;29;20571;-77
2022/06/20 06:44:49;;;;;;;6.78;3.10;;;24.90;99.90;;;;;;4822051;29;20035;-77
2022/06/20 06:47:35;;;;;;;5.88;3.40;;;25.10;99.90;;;;;;4854020;29;20057;-78
2022/06/20 06:50:16;;;;;;;4.28;3.13;;;25.10;99.90;;;;;;4878017;29;20439;-77
2022/06/20 06:52:51;;;;;;;6.60;3.42;;;25.20;99.90;;;;;;4875256;29;20103;-77
2022/06/20 06:55:17;;;;;;;4.80;3.08;;;25.30;99.90;;;;;;4855676;29;20431;-77
2022/06/20 06:57:59;;;;;;;6.28;3.33;;;25.30;99.90;;;;;;4869048;29;20037;-77
2022/06/20 07:00:37;;;;;;;3.58;3.13;;;25.30;99.90;;;;;;4875874;29;20068;-79
2022/06/20 07:03:25;;;;;;;5.03;3.40;;;25.40;99.90;;;;;;4874264;29;20033;-78
2022/06/20 07:06:06;;;;;;;3.50;3.20;;;25.50;99.90;;;;;;4862106;29;20037;-78
2022/06/20 07:08:41;;;;;;;5.75;3.20;;;25.60;99.90;;;;;;4873798;29;20044;-77
2022/06/20 07:11:21;;;;;;;5.28;3.00;;;25.70;99.90;;;;;;4857405;29;20031;-78
2022/06/20 07:14:05;;;;;;;3.72;3.42;;;25.60;99.90;;;;;;4955044;29;20182;-78
2022/06/20 07:16:45;;;;;;;3.45;3.10;;;25.90;99.90;;;;;;4953789;29;20042;-77
2022/06/20 07:19:12;;;;;;;4.57;2.90;;;25.90;99.90;;;;;;4953567;29;20166;-77
2022/06/20 07:21:40;;;;;;;5.38;3.20;;;26.00;99.90;;;;;;4952874;29;20054;-78
2022/06/20 07:24:34;;;;;;;5.95;3.15;;;26.20;99.90;;;;;;4950702;28;20019;-81
2022/06/20 07:27:02;;;;;;;6.22;3.10;;;26.20;99.90;;;;;;4936917;29;20106;-77
2022/06/20 07:29:34;;;;;;;4.38;2.75;;;26.30;99.90;;;;;;4952998;29;20543;-78
2022/06/20 07:32:11;;;;;;;4.50;3.22;;;26.40;99.90;;;;;;4955064;29;20373;-78
2022/06/20 07:34:51;;;;;;;4.60;3.17;;;26.40;99.90;;;;;;4953646;29;20027;-77
2022/06/20 07:37:23;;;;;;;4.72;3.20;;;26.50;99.90;;;;;;4952096;28;20026;-78
2022/06/20 07:40:00;;;;;;;6.43;3.47;;;26.50;99.90;;;;;;4953104;29;20059;-77
2022/06/20 07:42:59;;;;;;;6.22;2.97;;;26.60;99.90;;;;;;4953100;29;20035;-77
2022/06/20 07:45:36;;;;;;;5.60;3.20;;;26.80;99.90;;;;;;4930005;29;20042;-78
2022/06/20 07:48:17;;;;;;;3.78;2.80;;;26.80;99.90;;;;;;4953021;29;20086;-77
2022/06/20 07:50:49;;;;;;;5.80;2.80;;;26.70;99.90;;;;;;4937862;29;20015;-78
2022/06/20 07:53:20;;;;;;;4.63;3.25;;;26.80;99.90;;;;;;4952898;28;20612;-78
2022/06/20 07:55:50;;;;;;;4.75;3.10;;;27.10;99.90;;;;;;4953649;29;20028;-77
2022/06/20 07:58:26;;;;;;;3.72;3.33;;;27.30;99.90;;;;;;4935456;29;20082;-78
2022/06/20 08:00:53;;;;;;;4.65;3.10;;;27.20;99.90;;;;;;4952583;28;20070;-78
2022/06/20 08:03:38;;;;;;;7.35;3.00;;;27.40;99.90;;;;;;4950919;28;20041;-78
2022/06/20 08:06:29;;;;;;;4.55;3.10;;;27.40;99.90;;;;;;4952166;29;20023;-78
2022/06/20 08:09:07;;;;;;;4.22;3.20;;;27.30;99.90;;;;;;4938730;29;20038;-78
2022/06/20 08:11:43;;;;;;;5.72;2.92;;;27.40;99.90;;;;;;4951828;29;20448;-78
2022/06/20 08:14:25;;;;;;;3.40;2.70;;;27.30;99.90;;;;;;4950636;29;20074;-78
2022/06/20 08:16:55;;;;;;;3.33;3.00;;;27.40;99.90;;;;;;4952117;29;20034;-78
2022/06/20 08:19:21;;;;;;;4.40;3.35;;;27.70;99.90;;;;;;4951054;28;20035;-78
2022/06/20 08:21:57;;;;;;;4.45;2.90;;;27.60;99.90;;;;;;4950974;28;20452;-78
2022/06/20 08:24:37;;;;;;;6.90;3.33;;;27.60;99.90;;;;;;4942822;29;20031;-78
2022/06/20 08:27:09;;;;;;;4.70;2.90;;;27.70;99.90;;;;;;4951131;28;20027;-78
2022/06/20 08:29:58;;;;;;;5.53;2.92;;;27.80;99.90;;;;;;4966979;28;20039;-78
2022/06/20 08:32:39;;;;;;;10.75;3.75;;;27.90;99.90;;;;;;4924913;29;20035;-78
2022/06/20 08:35:23;;;;;;;4.65;3.10;;;27.80;99.90;;;;;;4953491;29;20533;-78
2022/06/20 08:37:55;;;;;;;3.38;3.08;;;27.90;99.90;;;;;;4954133;28;20046;-78
2022/06/20 08:40:32;;;;;;;4.78;3.03;;;27.90;99.90;;;;;;4949981;29;20145;-78
2022/06/20 08:43:17;;;;;;;5.93;3.35;;;28.00;99.90;;;;;;4950409;28;20046;-78
2022/06/20 08:46:04;;;;;;;5.38;3.05;;;28.00;99.90;;;;;;4955247;28;20054;-79
2022/06/20 08:48:32;;;;;;;4.82;3.05;;;28.10;99.90;;;;;;4951227;28;20031;-78
2022/06/20 08:51:24;;;;;;;6.03;3.30;;;28.20;99.90;;;;;;4951910;29;20035;-78
2022/06/20 08:54:14;;;;;;;4.50;2.88;;;28.40;99.90;;;;;;4951250;29;20038;-78
2022/06/20 08:56:57;;;;;;;4.90;3.00;;;28.50;99.90;;;;;;4936465;29;20482;-78
2022/06/20 08:59:42;;;;;;;4.55;3.10;;;28.40;99.90;;;;;;4949202;28;20574;-78
2022/06/20 09:02:20;;;;;;;3.88;3.20;;;28.60;99.90;;;;;;4947964;29;20233;-78
2022/06/20 09:05:17;;;;;;;6.00;3.30;;;28.60;99.90;;;;;;4951227;28;20038;-78
2022/06/20 09:08:00;;;;;;;6.68;3.28;;;28.50;99.90;;;;;;4950618;29;20035;-78
2022/06/20 09:10:40;;;;;;;3.50;2.92;;;28.60;99.90;;;;;;4951439;29;20067;-78
2022/06/20 09:13:39;;;;;;;4.25;3.40;;;28.80;99.90;;;;;;4951817;29;20130;-78
2022/06/20 09:16:30;;;;;;;6.38;3.40;;;29.00;99.90;;;;;;4951457;29;20070;-78
2022/06/20 09:19:05;;;;;;;4.85;3.05;;;28.80;99.90;;;;;;4950647;29;20447;-78
2022/06/20 09:21:57;;;;;;;4.45;3.20;;;28.90;99.90;;;;;;4949392;28;20050;-78
2022/06/20 09:24:25;;;;;;;5.50;3.08;;;29.00;99.90;;;;;;4948193;28;20518;-78
2022/06/20 09:27:10;;;;;;;5.63;3.20;;;29.00;99.90;;;;;;4963426;28;20035;-78
2022/06/20 09:29:50;;;;;;;6.25;3.63;;;28.90;99.90;;;;;;4951254;29;20396;-78
2022/06/20 09:33:05;;;;;;;5.78;3.40;;;29.00;99.90;;;;;;4949532;28;20071;-78
2022/06/20 09:35:51;;;;;;;5.68;3.20;;;29.10;99.90;;;;;;4953991;29;20035;-78
2022/06/20 09:39:00;;;;;;;5.40;3.30;;;29.40;99.90;;;;;;4952935;29;20035;-78
2022/06/20 09:41:32;;;;;;;4.93;3.40;;;29.40;99.90;;;;;;4953409;28;20043;-79
2022/06/20 09:44:42;;;;;;;3.40;3.10;;;29.50;99.90;;;;;;4956917;29;20031;-78
2022/06/20 09:47:33;;;;;;;4.97;3.35;;;29.70;99.90;;;;;;4951759;28;20036;-79
2022/06/20 09:50:21;;;;;;;4.85;2.97;;;29.60;99.90;;;;;;4955574;29;20031;-78
2022/06/20 09:53:19;;;;;;;4.03;3.28;;;29.90;99.90;;;;;;4954663;28;20074;-79
2022/06/20 09:56:22;;;;;;;3.50;3.20;;;29.50;99.90;;;;;;4935218;29;20266;-78
2022/06/20 09:58:53;;;;;;;6.18;3.33;;;29.60;99.90;;;;;;4956237;29;20484;-80
2022/06/20 10:01:33;;;;;;;7.32;3.95;;;29.60;99.90;;;;;;4954181;29;20042;-78
2022/06/20 10:03:59;;;;;;;6.55;3.22;;;29.70;99.90;;;;;;4954608;29;20023;-79
2022/06/20 10:06:58;;;;;;;5.43;3.60;;;29.70;99.90;;;;;;4954553;29;20034;-78
2022/06/20 10:09:40;;;;;;;4.45;3.60;;;30.30;99.90;;;;;;4952886;29;20031;-78
2022/06/20 10:12:35;;;;;;;6.43;3.70;;;30.90;99.90;;;;;;4954482;29;20027;-78
2022/06/20 10:15:28;;;;;;;6.57;3.80;;;30.40;99.90;;;;;;4940855;29;20051;-78
2022/06/20 10:18:17;;;;;;;6.47;3.60;;;30.50;99.90;;;;;;4943284;29;20028;-79
2022/06/20 10:20:48;;;;;;;6.47;3.22;;;30.30;99.90;;;;;;4948840;29;20102;-78
2022/06/20 10:23:36;;;;;;;5.95;3.78;;;30.10;99.90;;;;;;4955569;29;20488;-78
2022/06/20 10:26:12;;;;;;;5.07;3.85;;;30.10;99.90;;;;;;4955075;29;20484;-78
2022/06/20 10:29:01;;;;;;;6.38;3.38;;;30.10;99.90;;;;;;4954681;29;20031;-79
2022/06/20 10:31:52;;;;;;;5.75;3.40;;;30.20;99.90;;;;;;4953627;29;20587;-78
2022/06/20 10:34:42;;;;;;;4.00;3.60;;;30.40;99.90;;;;;;4954569;29;20384;-77
2022/06/20 10:37:19;;;;;;;5.85;3.60;;;30.40;99.90;;;;;;4953958;28;20081;-77
2022/06/20 10:40:07;;;;;;;6.25;3.70;;;30.50;99.90;;;;;;4952288;28;20031;-78
2022/06/20 10:43:07;;;;;;;7.63;3.70;;;30.70;99.90;;;;;;4953059;28;20031;-78
2022/06/20 10:46:05;;;;;;;4.32;3.30;;;30.60;99.90;;;;;;4952137;28;20098;-77
2022/06/20 10:48:50;;;;;;;5.00;3.45;;;30.70;99.90;;;;;;4951773;29;20079;-78
2022/06/20 10:51:25;;;;;;;4.00;3.67;;;30.60;99.90;;;;;;4954128;28;20391;-78
2022/06/20 10:54:37;;;;;;;4.13;3.72;;;31.10;99.90;;;;;;4952578;29;20035;-78
2022/06/20 10:57:13;;;;;;;7.38;3.70;;;30.80;99.90;;;;;;4847232;29;20414;-78
2022/06/20 11:00:02;;;;;;;7.65;4.07;;;30.70;99.90;;;;;;4858437;29;20049;-79
2022/06/20 11:03:00;;;;;;;5.13;3.53;;;30.80;99.90;;;;;;4857304;29;20037;-79
2022/06/20 11:05:46;;;;;;;4.93;3.83;;;30.90;99.90;;;;;;4838610;29;20141;-78
2022/06/20 11:08:24;;;;;;;5.15;3.80;;;31.20;99.90;;;;;;4836957;29;20045;-79
2022/06/20 11:11:15;;;;;;;4.68;3.78;;;31.20;99.90;;;;;;4829252;29;20042;-78
2022/06/20 11:13:55;;;;;;;6.80;4.00;;;31.30;99.90;;;;;;4839902;29;20026;-79
2022/06/20 11:16:32;;;;;;;5.30;3.72;;;31.50;99.90;;;;;;4838975;29;20038;-79
2022/06/20 11:18:57;;;;;;;6.00;3.65;;;31.20;99.90;;;;;;4835099;29;20054;-85
2022/06/20 11:21:38;;;;;;;4.55;3.58;;;31.10;99.90;;;;;;4839777;29;20503;-81
2022/06/20 11:24:48;;;;;;;4.85;3.40;;;31.20;99.90;;;;;;4834470;29;20133;-79
2022/06/20 11:27:34;;;;;;;6.63;3.90;;;31.30;99.90;;;;;;4822581;29;20141;-80
2022/06/20 11:30:23;;;;;;;4.50;3.38;;;31.50;99.90;;;;;;4822194;29;20052;-79
2022/06/20 11:33:03;;;;;;;6.68;3.40;;;31.70;99.90;;;;;;4822514;29;20552;-79
2022/06/20 11:35:56;;;;;;;4.78;3.85;;;32.20;99.90;;;;;;4822348;29;20539;-79
2022/06/20 11:38:28;;;;;;;4.00;3.63;;;32.30;99.90;;;;;;4822580;29;20450;-79
2022/06/20 11:41:15;;;;;;;5.07;3.85;;;32.00;99.90;;;;;;4820655;29;20052;-79
2022/06/20 11:43:48;;;;;;;4.75;3.45;;;31.80;99.90;;;;;;4893132;29;20123;-79
2022/06/20 11:46:23;;;;;;;3.88;3.50;;;32.10;99.90;;;;;;4893722;29;20040;-79
2022/06/20 11:49:32;;;;;;;6.05;3.60;;;32.50;99.90;;;;;;4891388;29;20036;-79
2022/06/20 11:52:10;;;;;;;4.78;3.40;;;32.60;99.90;;;;;;4891296;29;20411;-79
2022/06/20 11:54:45;;;;;;;4.70;3.45;;;32.40;99.90;;;;;;4893352;29;20413;-79
2022/06/20 11:57:38;;;;;;;3.63;3.33;;;32.30;99.90;;;;;;4893106;29;20124;-79
2022/06/20 12:00:20;;;;;;;5.22;3.80;;;32.60;99.90;;;;;;4893916;29;20442;-79
2022/06/20 12:03:11;;;;;;;5.43;3.40;;;32.80;99.90;;;;;;4893705;29;20092;-79
2022/06/20 12:06:02;;;;;;;4.07;3.70;;;33.00;99.90;;;;;;4952003;29;20027;-79
2022/06/20 12:08:51;;;;;;;3.85;3.40;;;32.90;99.90;;;;;;4952383;29;20027;-79
2022/06/20 12:11:48;;;;;;;6.40;3.42;;;32.70;99.90;;;;;;4950322;29;20054;-79
2022/06/20 12:14:23;;;;;;;3.85;3.42;;;33.70;99.90;;;;;;4946620;28;20396;-79
2022/06/20 12:16:57;;;;;;;6.70;3.53;;;35.00;99.90;;;;;;4953717;29;20027;-79
2022/06/20 12:25:37;;;;;;;4.03;3.47;;;39.10;99.90;;;;;;4952296;29;20074;-79
2022/06/20 12:28:18;;;;;;;4.10;3.70;;;40.00;99.90;;;;;;4950156;28;20035;-79
2022/06/20 12:30:51;;;;;;;5.45;3.40;;;39.90;99.90;;;;;;4944988;28;20047;-80
2022/06/20 12:33:17;;;;;;;3.67;3.38;;;39.50;99.90;;;;;;4952053;28;20494;-79
2022/06/20 12:35:48;;;;;;;6.60;3.20;;;38.20;99.90;;;;;;4952431;29;20030;-79
2022/06/20 12:38:43;;;;;;;4.93;3.30;;;40.30;99.90;;;;;;4949954;29;20058;-79
2022/06/20 12:41:14;;;;;;;4.55;3.45;;;40.10;99.90;;;;;;4947931;28;20047;-79
2022/06/20 12:43:51;;;;;;;3.53;3.22;;;39.80;99.90;;;;;;4951624;28;20059;-80
2022/06/20 12:46:35;;;;;;;7.50;3.53;;;38.40;99.90;;;;;;4951932;29;20377;-80
2022/06/20 12:49:21;;;;;;;4.18;3.28;;;38.90;99.90;;;;;;4951855;29;20122;-80
2022/06/20 12:52:10;;;;;;;4.72;3.45;;;38.10;99.90;;;;;;4949300;28;20039;-80
2022/06/20 12:55:03;;;;;;;4.40;3.45;;;38.70;99.90;;;;;;4950429;28;20019;-80
2022/06/20 12:57:57;;;;;;;4.00;3.38;;;38.60;99.90;;;;;;4949888;28;20082;-79
2022/06/20 13:00:22;;;;;;;5.35;3.22;;;37.50;99.90;;;;;;4941920;29;20452;-80
2022/06/20 13:03:03;;;;;;;3.70;3.40;;;36.80;99.90;;;;;;4951245;29;20031;-80
2022/06/20 13:05:47;;;;;;;4.03;3.58;;;38.40;99.90;;;;;;4950662;28;20106;-80
2022/06/20 13:08:13;;;;;;;7.70;3.63;;;38.00;99.90;;;;;;4949289;28;20031;-80
2022/06/20 13:10:41;;;;;;;4.47;3.45;;;36.80;99.90;;;;;;4951993;29;20028;-79
2022/06/20 13:13:29;;;;;;;3.92;3.40;;;37.70;99.90;;;;;;4950366;29;20492;-80
2022/06/20 13:16:33;;;;;;;3.80;3.40;;;38.50;99.90;;;;;;4951401;29;20023;-79
2022/06/20 13:19:26;;;;;;;4.93;3.50;;;38.80;99.90;;;;;;4920983;29;20028;-80
2022/06/20 13:22:16;;;;;;;3.38;3.08;;;39.00;99.90;;;;;;4951528;29;20067;-79
2022/06/20 13:25:25;;;;;;;4.40;3.35;;;37.80;99.90;;;;;;4939040;28;20031;-79
2022/06/20 13:28:04;;;;;;;4.20;3.20;;;37.60;99.90;;;;;;4949603;28;20041;-79
2022/06/20 13:30:48;;;;;;;3.30;3.10;;;38.00;99.90;;;;;;4949498;28;20047;-79
2022/06/20 13:33:28;;;;;;;3.65;3.22;;;38.20;99.90;;;;;;4952003;29;20043;-80
2022/06/20 13:36:03;;;;;;;3.47;3.17;;;37.60;99.90;;;;;;4937886;29;20042;-80
2022/06/20 13:38:51;;;;;;;4.90;3.50;;;38.90;99.90;;;;;;4934258;29;20374;-80
2022/06/20 13:41:23;;;;;;;7.30;3.20;;;39.30;99.90;;;;;;4948875;28;20043;-79
2022/06/20 13:44:19;;;;;;;5.20;3.40;;;39.00;99.90;;;;;;4950878;28;20023;-79
2022/06/20 13:46:52;;;;;;;5.82;3.80;;;38.30;99.90;;;;;;4952321;29;20035;-80
2022/06/20 13:49:39;;;;;;;4.20;3.30;;;38.30;99.90;;;;;;4951236;28;20023;-80
2022/06/20 13:52:28;;;;;;;5.32;3.60;;;38.80;99.90;;;;;;4951313;29;20037;-79
2022/06/20 13:55:07;;;;;;;6.72;3.75;;;37.70;99.90;;;;;;4951183;28;20015;-80
2022/06/20 13:57:41;;;;;;;5.05;3.88;;;37.40;99.90;;;;;;4951577;29;20119;-79
2022/06/20 14:00:15;;;;;;;7.22;3.92;;;37.50;99.90;;;;;;4948600;28;20078;-79
2022/06/20 14:03:04;;;;;;;3.97;3.63;;;37.50;99.90;;;;;;4936017;29;20043;-80